sensor_id;sensor_type;location;lat;lon;timestamp;P1;durP1;ratioP1;P2;durP2;ratioP2
55148;SDS011;49539;48.160;11.530;2023-10-31T00:01:43;2.30;;;1.20;;
55148;SDS011;49539;48.160;11.530;2023-10-31T00:04:08;2.63;;;0.95;;
55148;SDS011;49539;48.160;11.530;2023-10-31T00:06:33;1.65;;;0.55;;
55148;SDS011;49539;48.160;11.530;2023-10-31T00:08:59;1.97;;;0.80;;
55148;SDS011;49539;48.160;11.530;2023-10-31T00:11:24;1.95;;;0.85;;
55148;SDS011;49539;48.160;11.530;2023-10-31T00:13:49;1.38;;;0.60;;
55148;SDS011;49539;48.160;11.530;2023-10-31T00:16:15;1.02;;;0.68;;
55148;SDS011;49539;48.160;11.530;2023-10-31T00:18:40;0.50;;;0.38;;
55148;SDS011;49539;48.160;11.530;2023-10-31T00:21:06;3.38;;;0.52;;
55148;SDS011;49539;48.160;11.530;2023-10-31T00:23:31;1.38;;;0.63;;
55148;SDS011;49539;48.160;11.530;2023-10-31T00:25:56;0.35;;;0.35;;
55148;SDS011;49539;48.160;11.530;2023-10-31T00:28:21;1.10;;;0.50;;
55148;SDS011;49539;48.160;11.530;2023-10-31T00:30:47;0.73;;;0.45;;
55148;SDS011;49539;48.160;11.530;2023-10-31T00:33:12;1.17;;;0.57;;
55148;SDS011;49539;48.160;11.530;2023-10-31T00:35:37;0.63;;;0.40;;
55148;SDS011;49539;48.160;11.530;2023-10-31T00:38:03;0.50;;;0.30;;
55148;SDS011;49539;48.160;11.530;2023-10-31T00:40:28;5.70;;;0.60;;
55148;SDS011;49539;48.160;11.530;2023-10-31T00:42:53;2.35;;;0.60;;
55148;SDS011;49539;48.160;11.530;2023-10-31T00:45:21;0.50;;;0.40;;
55148;SDS011;49539;48.160;11.530;2023-10-31T00:47:46;0.75;;;0.50;;
55148;SDS011;49539;48.160;11.530;2023-10-31T00:50:11;0.60;;;0.43;;
55148;SDS011;49539;48.160;11.530;2023-10-31T00:52:37;0.40;;;0.40;;
55148;SDS011;49539;48.160;11.530;2023-10-31T00:55:04;1.58;;;0.30;;
55148;SDS011;49539;48.160;11.530;2023-10-31T00:57:29;0.60;;;0.40;;
55148;SDS011;49539;48.160;11.530;2023-10-31T00:59:55;0.68;;;0.38;;
55148;SDS011;49539;48.160;11.530;2023-10-31T01:02:21;0.30;;;0.30;;
55148;SDS011;49539;48.160;11.530;2023-10-31T01:04:46;0.30;;;0.30;;
55148;SDS011;49539;48.160;11.530;2023-10-31T01:07:11;0.40;;;0.30;;
55148;SDS011;49539;48.160;11.530;2023-10-31T01:09:37;0.70;;;0.40;;
55148;SDS011;49539;48.160;11.530;2023-10-31T01:12:03;1.05;;;0.30;;
55148;SDS011;49539;48.160;11.530;2023-10-31T01:14:29;1.05;;;0.40;;
55148;SDS011;49539;48.160;11.530;2023-10-31T01:16:54;0.50;;;0.40;;
55148;SDS011;49539;48.160;11.530;2023-10-31T01:19:19;0.93;;;0.40;;
55148;SDS011;49539;48.160;11.530;2023-10-31T01:21:45;0.70;;;0.50;;
55148;SDS011;49539;48.160;11.530;2023-10-31T01:24:10;0.82;;;0.45;;
55148;SDS011;49539;48.160;11.530;2023-10-31T01:26:35;0.32;;;0.30;;
55148;SDS011;49539;48.160;11.530;2023-10-31T01:29:01;0.40;;;0.40;;
55148;SDS011;49539;48.160;11.530;2023-10-31T01:31:26;0.63;;;0.38;;
55148;SDS011;49539;48.160;11.530;2023-10-31T01:33:51;0.32;;;0.25;;
55148;SDS011;49539;48.160;11.530;2023-10-31T01:36:17;0.60;;;0.30;;
55148;SDS011;49539;48.160;11.530;2023-10-31T01:38:43;0.20;;;0.20;;
55148;SDS011;49539;48.160;11.530;2023-10-31T01:41:08;1.45;;;0.43;;
55148;SDS011;49539;48.160;11.530;2023-10-31T01:43:34;0.20;;;0.20;;
55148;SDS011;49539;48.160;11.530;2023-10-31T01:46:00;0.20;;;0.20;;
55148;SDS011;49539;48.160;11.530;2023-10-31T01:48:25;1.77;;;0.35;;
55148;SDS011;49539;48.160;11.530;2023-10-31T01:50:52;0.20;;;0.20;;
55148;SDS011;49539;48.160;11.530;2023-10-31T01:53:17;0.40;;;0.30;;
55148;SDS011;49539;48.160;11.530;2023-10-31T01:55:44;0.20;;;0.20;;
55148;SDS011;49539;48.160;11.530;2023-10-31T01:58:10;0.30;;;0.30;;
55148;SDS011;49539;48.160;11.530;2023-10-31T02:00:36;0.22;;;0.22;;
55148;SDS011;49539;48.160;11.530;2023-10-31T02:03:04;0.20;;;0.20;;
55148;SDS011;49539;48.160;11.530;2023-10-31T02:05:30;0.20;;;0.20;;
55148;SDS011;49539;48.160;11.530;2023-10-31T02:07:57;0.20;;;0.20;;
55148;SDS011;49539;48.160;11.530;2023-10-31T02:10:22;0.20;;;0.20;;
55148;SDS011;49539;48.160;11.530;2023-10-31T02:12:48;0.20;;;0.20;;
55148;SDS011;49539;48.160;11.530;2023-10-31T02:15:13;0.38;;;0.30;;
55148;SDS011;49539;48.160;11.530;2023-10-31T02:17:38;0.20;;;0.20;;
55148;SDS011;49539;48.160;11.530;2023-10-31T02:20:04;0.60;;;0.28;;
55148;SDS011;49539;48.160;11.530;2023-10-31T02:22:30;0.60;;;0.40;;
55148;SDS011;49539;48.160;11.530;2023-10-31T02:24:55;0.55;;;0.28;;
55148;SDS011;49539;48.160;11.530;2023-10-31T02:27:21;8.95;;;0.68;;
55148;SDS011;49539;48.160;11.530;2023-10-31T02:29:46;0.40;;;0.30;;
55148;SDS011;49539;48.160;11.530;2023-10-31T02:32:12;0.60;;;0.30;;
55148;SDS011;49539;48.160;11.530;2023-10-31T02:34:37;0.20;;;0.20;;
55148;SDS011;49539;48.160;11.530;2023-10-31T02:37:02;0.63;;;0.22;;
55148;SDS011;49539;48.160;11.530;2023-10-31T02:39:27;0.50;;;0.25;;
55148;SDS011;49539;48.160;11.530;2023-10-31T02:41:53;0.20;;;0.20;;
55148;SDS011;49539;48.160;11.530;2023-10-31T02:44:18;0.82;;;0.35;;
55148;SDS011;49539;48.160;11.530;2023-10-31T02:46:43;0.28;;;0.20;;
55148;SDS011;49539;48.160;11.530;2023-10-31T02:49:09;0.20;;;0.20;;
55148;SDS011;49539;48.160;11.530;2023-10-31T02:51:35;0.25;;;0.20;;
55148;SDS011;49539;48.160;11.530;2023-10-31T02:54:00;0.30;;;0.20;;
55148;SDS011;49539;48.160;11.530;2023-10-31T02:56:25;1.38;;;0.65;;
55148;SDS011;49539;48.160;11.530;2023-10-31T02:58:50;0.30;;;0.30;;
55148;SDS011;49539;48.160;11.530;2023-10-31T03:01:16;1.60;;;0.57;;
55148;SDS011;49539;48.160;11.530;2023-10-31T03:03:43;1.05;;;0.47;;
55148;SDS011;49539;48.160;11.530;2023-10-31T03:06:08;0.68;;;0.20;;
55148;SDS011;49539;48.160;11.530;2023-10-31T03:08:33;0.20;;;0.20;;
55148;SDS011;49539;48.160;11.530;2023-10-31T03:10:58;0.20;;;0.20;;
55148;SDS011;49539;48.160;11.530;2023-10-31T03:13:24;0.35;;;0.20;;
55148;SDS011;49539;48.160;11.530;2023-10-31T03:15:49;0.40;;;0.35;;
55148;SDS011;49539;48.160;11.530;2023-10-31T03:18:14;0.25;;;0.25;;
55148;SDS011;49539;48.160;11.530;2023-10-31T03:20:42;5.07;;;0.50;;
55148;SDS011;49539;48.160;11.530;2023-10-31T03:23:08;0.30;;;0.30;;
55148;SDS011;49539;48.160;11.530;2023-10-31T03:25:33;0.20;;;0.20;;
55148;SDS011;49539;48.160;11.530;2023-10-31T03:27:59;0.90;;;0.30;;
55148;SDS011;49539;48.160;11.530;2023-10-31T03:30:24;0.60;;;0.20;;
55148;SDS011;49539;48.160;11.530;2023-10-31T03:32:49;0.30;;;0.30;;
55148;SDS011;49539;48.160;11.530;2023-10-31T03:35:15;1.17;;;0.43;;
55148;SDS011;49539;48.160;11.530;2023-10-31T03:37:40;0.22;;;0.22;;
55148;SDS011;49539;48.160;11.530;2023-10-31T03:40:08;0.20;;;0.20;;
55148;SDS011;49539;48.160;11.530;2023-10-31T03:42:34;0.30;;;0.30;;
55148;SDS011;49539;48.160;11.530;2023-10-31T03:44:59;0.20;;;0.20;;
55148;SDS011;49539;48.160;11.530;2023-10-31T03:47:24;0.30;;;0.30;;
55148;SDS011;49539;48.160;11.530;2023-10-31T03:49:50;0.40;;;0.30;;
55148;SDS011;49539;48.160;11.530;2023-10-31T03:52:15;1.00;;;0.40;;
55148;SDS011;49539;48.160;11.530;2023-10-31T03:54:40;0.32;;;0.20;;
55148;SDS011;49539;48.160;11.530;2023-10-31T03:57:06;0.40;;;0.40;;
55148;SDS011;49539;48.160;11.530;2023-10-31T03:59:31;0.20;;;0.20;;
55148;SDS011;49539;48.160;11.530;2023-10-31T04:01:56;0.30;;;0.30;;
55148;SDS011;49539;48.160;11.530;2023-10-31T04:04:22;0.30;;;0.30;;
55148;SDS011;49539;48.160;11.530;2023-10-31T04:06:47;0.20;;;0.20;;
55148;SDS011;49539;48.160;11.530;2023-10-31T04:09:14;0.60;;;0.43;;
55148;SDS011;49539;48.160;11.530;2023-10-31T04:11:40;1.50;;;0.30;;
55148;SDS011;49539;48.160;11.530;2023-10-31T04:14:06;0.40;;;0.32;;
55148;SDS011;49539;48.160;11.530;2023-10-31T04:16:32;0.30;;;0.30;;
55148;SDS011;49539;48.160;11.530;2023-10-31T04:18:57;0.88;;;0.40;;
55148;SDS011;49539;48.160;11.530;2023-10-31T04:21:25;0.38;;;0.30;;
55148;SDS011;49539;48.160;11.530;2023-10-31T04:23:50;0.43;;;0.40;;
55148;SDS011;49539;48.160;11.530;2023-10-31T04:26:15;0.63;;;0.40;;
55148;SDS011;49539;48.160;11.530;2023-10-31T04:28:42;0.20;;;0.20;;
55148;SDS011;49539;48.160;11.530;2023-10-31T04:31:08;0.82;;;0.30;;
55148;SDS011;49539;48.160;11.530;2023-10-31T04:33:33;0.30;;;0.30;;
55148;SDS011;49539;48.160;11.530;2023-10-31T04:35:58;0.30;;;0.30;;
55148;SDS011;49539;48.160;11.530;2023-10-31T04:38:25;1.27;;;0.40;;
55148;SDS011;49539;48.160;11.530;2023-10-31T04:40:51;0.65;;;0.38;;
55148;SDS011;49539;48.160;11.530;2023-10-31T04:43:16;0.73;;;0.30;;
55148;SDS011;49539;48.160;11.530;2023-10-31T04:45:42;1.15;;;0.50;;
55148;SDS011;49539;48.160;11.530;2023-10-31T04:48:07;0.68;;;0.40;;
55148;SDS011;49539;48.160;11.530;2023-10-31T04:50:32;1.80;;;0.50;;
55148;SDS011;49539;48.160;11.530;2023-10-31T04:52:57;0.55;;;0.35;;
55148;SDS011;49539;48.160;11.530;2023-10-31T04:55:23;0.70;;;0.40;;
55148;SDS011;49539;48.160;11.530;2023-10-31T04:57:48;1.02;;;0.50;;
55148;SDS011;49539;48.160;11.530;2023-10-31T05:00:13;1.20;;;0.73;;
55148;SDS011;49539;48.160;11.530;2023-10-31T05:02:39;0.30;;;0.30;;
55148;SDS011;49539;48.160;11.530;2023-10-31T05:05:04;0.75;;;0.40;;
55148;SDS011;49539;48.160;11.530;2023-10-31T05:07:30;1.65;;;0.50;;
55148;SDS011;49539;48.160;11.530;2023-10-31T05:09:57;0.88;;;0.30;;
55148;SDS011;49539;48.160;11.530;2023-10-31T05:12:22;1.33;;;0.43;;
55148;SDS011;49539;48.160;11.530;2023-10-31T05:14:47;0.85;;;0.50;;
55148;SDS011;49539;48.160;11.530;2023-10-31T05:17:13;1.55;;;0.82;;
55148;SDS011;49539;48.160;11.530;2023-10-31T05:19:38;1.20;;;0.60;;
55148;SDS011;49539;48.160;11.530;2023-10-31T05:22:04;1.92;;;0.70;;
55148;SDS011;49539;48.160;11.530;2023-10-31T05:24:29;1.42;;;0.40;;
55148;SDS011;49539;48.160;11.530;2023-10-31T05:26:54;2.20;;;0.50;;
55148;SDS011;49539;48.160;11.530;2023-10-31T05:29:19;0.77;;;0.70;;
55148;SDS011;49539;48.160;11.530;2023-10-31T05:31:45;2.72;;;0.60;;
55148;SDS011;49539;48.160;11.530;2023-10-31T05:34:10;1.55;;;0.60;;
55148;SDS011;49539;48.160;11.530;2023-10-31T05:36:36;0.40;;;0.40;;
55148;SDS011;49539;48.160;11.530;2023-10-31T05:39:01;1.45;;;0.60;;
55148;SDS011;49539;48.160;11.530;2023-10-31T05:41:27;2.58;;;0.73;;
55148;SDS011;49539;48.160;11.530;2023-10-31T05:43:52;0.80;;;0.60;;
55148;SDS011;49539;48.160;11.530;2023-10-31T05:46:17;3.92;;;0.90;;
55148;SDS011;49539;48.160;11.530;2023-10-31T05:48:44;1.80;;;0.70;;
55148;SDS011;49539;48.160;11.530;2023-10-31T05:51:16;2.42;;;0.80;;
55148;SDS011;49539;48.160;11.530;2023-10-31T05:53:43;2.53;;;0.70;;
55148;SDS011;49539;48.160;11.530;2023-10-31T05:56:09;0.68;;;0.57;;
55148;SDS011;49539;48.160;11.530;2023-10-31T05:58:37;2.95;;;0.82;;
55148;SDS011;49539;48.160;11.530;2023-10-31T06:01:02;4.22;;;1.20;;
55148;SDS011;49539;48.160;11.530;2023-10-31T06:03:28;1.17;;;0.60;;
55148;SDS011;49539;48.160;11.530;2023-10-31T06:05:53;0.80;;;0.63;;
55148;SDS011;49539;48.160;11.530;2023-10-31T06:08:19;2.40;;;0.65;;
55148;SDS011;49539;48.160;11.530;2023-10-31T06:10:44;0.95;;;0.70;;
55148;SDS011;49539;48.160;11.530;2023-10-31T06:13:10;1.58;;;0.85;;
55148;SDS011;49539;48.160;11.530;2023-10-31T06:15:35;2.75;;;0.93;;
55148;SDS011;49539;48.160;11.530;2023-10-31T06:18:00;1.52;;;0.88;;
55148;SDS011;49539;48.160;11.530;2023-10-31T06:20:26;1.55;;;0.70;;
55148;SDS011;49539;48.160;11.530;2023-10-31T06:22:51;1.80;;;1.05;;
55148;SDS011;49539;48.160;11.530;2023-10-31T06:25:16;1.40;;;0.75;;
55148;SDS011;49539;48.160;11.530;2023-10-31T06:27:42;1.23;;;0.65;;
55148;SDS011;49539;48.160;11.530;2023-10-31T06:30:07;1.00;;;0.65;;
55148;SDS011;49539;48.160;11.530;2023-10-31T06:32:32;3.10;;;0.90;;
55148;SDS011;49539;48.160;11.530;2023-10-31T06:34:58;5.28;;;1.33;;
55148;SDS011;49539;48.160;11.530;2023-10-31T06:37:23;2.22;;;0.90;;
55148;SDS011;49539;48.160;11.530;2023-10-31T06:39:48;0.88;;;0.60;;
55148;SDS011;49539;48.160;11.530;2023-10-31T06:42:16;1.05;;;0.80;;
55148;SDS011;49539;48.160;11.530;2023-10-31T06:44:41;2.10;;;0.70;;
55148;SDS011;49539;48.160;11.530;2023-10-31T06:47:06;1.20;;;0.80;;
55148;SDS011;49539;48.160;11.530;2023-10-31T06:49:31;1.92;;;0.60;;
55148;SDS011;49539;48.160;11.530;2023-10-31T06:51:57;3.35;;;0.95;;
55148;SDS011;49539;48.160;11.530;2023-10-31T06:54:22;3.63;;;1.17;;
55148;SDS011;49539;48.160;11.530;2023-10-31T06:56:47;3.20;;;1.13;;
55148;SDS011;49539;48.160;11.530;2023-10-31T06:59:12;2.85;;;0.70;;
55148;SDS011;49539;48.160;11.530;2023-10-31T07:01:38;1.80;;;0.70;;
55148;SDS011;49539;48.160;11.530;2023-10-31T07:04:03;0.80;;;0.50;;
55148;SDS011;49539;48.160;11.530;2023-10-31T07:06:29;2.35;;;0.80;;
55148;SDS011;49539;48.160;11.530;2023-10-31T07:08:54;1.88;;;0.65;;
55148;SDS011;49539;48.160;11.530;2023-10-31T07:11:19;3.05;;;0.80;;
55148;SDS011;49539;48.160;11.530;2023-10-31T07:13:45;0.80;;;0.60;;
55148;SDS011;49539;48.160;11.530;2023-10-31T07:16:10;4.97;;;0.77;;
55148;SDS011;49539;48.160;11.530;2023-10-31T07:18:35;4.63;;;0.80;;
55148;SDS011;49539;48.160;11.530;2023-10-31T07:21:01;1.42;;;0.82;;
55148;SDS011;49539;48.160;11.530;2023-10-31T07:23:26;2.20;;;1.13;;
55148;SDS011;49539;48.160;11.530;2023-10-31T07:25:51;2.83;;;1.02;;
55148;SDS011;49539;48.160;11.530;2023-10-31T07:28:17;1.02;;;0.63;;
55148;SDS011;49539;48.160;11.530;2023-10-31T07:30:42;2.22;;;0.95;;
55148;SDS011;49539;48.160;11.530;2023-10-31T07:33:08;1.65;;;0.88;;
55148;SDS011;49539;48.160;11.530;2023-10-31T07:35:33;1.30;;;0.63;;
55148;SDS011;49539;48.160;11.530;2023-10-31T07:37:58;0.93;;;0.70;;
55148;SDS011;49539;48.160;11.530;2023-10-31T07:40:23;2.67;;;0.70;;
55148;SDS011;49539;48.160;11.530;2023-10-31T07:42:49;1.95;;;0.80;;
55148;SDS011;49539;48.160;11.530;2023-10-31T07:45:14;1.52;;;0.90;;
55148;SDS011;49539;48.160;11.530;2023-10-31T07:47:39;1.30;;;0.63;;
55148;SDS011;49539;48.160;11.530;2023-10-31T07:50:05;1.27;;;0.75;;
55148;SDS011;49539;48.160;11.530;2023-10-31T07:52:30;1.13;;;0.50;;
55148;SDS011;49539;48.160;11.530;2023-10-31T07:54:56;1.35;;;0.65;;
55148;SDS011;49539;48.160;11.530;2023-10-31T07:57:21;1.15;;;0.47;;
55148;SDS011;49539;48.160;11.530;2023-10-31T07:59:46;1.42;;;0.70;;
55148;SDS011;49539;48.160;11.530;2023-10-31T08:02:13;1.13;;;0.60;;
55148;SDS011;49539;48.160;11.530;2023-10-31T08:04:38;1.40;;;0.75;;
55148;SDS011;49539;48.160;11.530;2023-10-31T08:07:04;0.93;;;0.52;;
55148;SDS011;49539;48.160;11.530;2023-10-31T08:09:29;1.10;;;0.70;;
55148;SDS011;49539;48.160;11.530;2023-10-31T08:11:55;0.93;;;0.73;;
55148;SDS011;49539;48.160;11.530;2023-10-31T08:14:20;2.17;;;0.55;;
55148;SDS011;49539;48.160;11.530;2023-10-31T08:16:47;1.02;;;0.50;;
55148;SDS011;49539;48.160;11.530;2023-10-31T08:19:12;2.05;;;0.80;;
55148;SDS011;49539;48.160;11.530;2023-10-31T08:21:38;0.90;;;0.60;;
55148;SDS011;49539;48.160;11.530;2023-10-31T08:24:03;8.32;;;1.20;;
55148;SDS011;49539;48.160;11.530;2023-10-31T08:26:30;1.08;;;0.63;;
55148;SDS011;49539;48.160;11.530;2023-10-31T08:28:56;2.85;;;0.50;;
55148;SDS011;49539;48.160;11.530;2023-10-31T08:31:22;1.10;;;0.50;;
55148;SDS011;49539;48.160;11.530;2023-10-31T08:33:48;4.65;;;0.52;;
55148;SDS011;49539;48.160;11.530;2023-10-31T08:36:13;1.23;;;0.80;;
55148;SDS011;49539;48.160;11.530;2023-10-31T08:38:39;1.27;;;0.80;;
55148;SDS011;49539;48.160;11.530;2023-10-31T08:41:04;1.17;;;0.52;;
55148;SDS011;49539;48.160;11.530;2023-10-31T08:43:30;2.13;;;0.73;;
55148;SDS011;49539;48.160;11.530;2023-10-31T08:45:55;1.37;;;0.73;;
55148;SDS011;49539;48.160;11.530;2023-10-31T08:48:27;5.55;;;0.80;;
55148;SDS011;49539;48.160;11.530;2023-10-31T08:51:19;5.47;;;0.80;;
55148;SDS011;49539;48.160;11.530;2023-10-31T08:53:44;1.83;;;0.90;;
55148;SDS011;49539;48.160;11.530;2023-10-31T08:56:10;2.78;;;0.80;;
55148;SDS011;49539;48.160;11.530;2023-10-31T08:58:35;2.85;;;1.17;;
55148;SDS011;49539;48.160;11.530;2023-10-31T09:01:00;1.00;;;0.43;;
55148;SDS011;49539;48.160;11.530;2023-10-31T09:03:26;2.92;;;0.68;;
55148;SDS011;49539;48.160;11.530;2023-10-31T09:05:51;0.90;;;0.60;;
55148;SDS011;49539;48.160;11.530;2023-10-31T09:08:16;3.33;;;0.60;;
55148;SDS011;49539;48.160;11.530;2023-10-31T09:10:42;7.20;;;1.05;;
55148;SDS011;49539;48.160;11.530;2023-10-31T09:13:10;1.13;;;0.80;;
55148;SDS011;49539;48.160;11.530;2023-10-31T09:15:37;1.63;;;0.75;;
55148;SDS011;49539;48.160;11.530;2023-10-31T09:18:04;1.13;;;0.60;;
55148;SDS011;49539;48.160;11.530;2023-10-31T09:20:29;3.55;;;0.90;;
55148;SDS011;49539;48.160;11.530;2023-10-31T09:22:55;1.50;;;0.80;;
55148;SDS011;49539;48.160;11.530;2023-10-31T09:25:20;1.80;;;0.80;;
55148;SDS011;49539;48.160;11.530;2023-10-31T09:27:46;1.45;;;0.80;;
55148;SDS011;49539;48.160;11.530;2023-10-31T09:30:12;2.00;;;0.70;;
55148;SDS011;49539;48.160;11.530;2023-10-31T09:32:38;2.80;;;0.82;;
55148;SDS011;49539;48.160;11.530;2023-10-31T09:35:04;2.13;;;0.97;;
55148;SDS011;49539;48.160;11.530;2023-10-31T09:37:29;1.35;;;0.90;;
55148;SDS011;49539;48.160;11.530;2023-10-31T09:39:54;0.98;;;0.50;;
55148;SDS011;49539;48.160;11.530;2023-10-31T09:42:20;2.80;;;0.73;;
55148;SDS011;49539;48.160;11.530;2023-10-31T09:44:45;2.00;;;0.65;;
55148;SDS011;49539;48.160;11.530;2023-10-31T09:47:10;1.92;;;0.80;;
55148;SDS011;49539;48.160;11.530;2023-10-31T09:49:37;1.83;;;0.70;;
55148;SDS011;49539;48.160;11.530;2023-10-31T09:52:02;6.95;;;1.10;;
55148;SDS011;49539;48.160;11.530;2023-10-31T09:54:28;1.58;;;0.70;;
55148;SDS011;49539;48.160;11.530;2023-10-31T09:56:55;3.75;;;0.73;;
55148;SDS011;49539;48.160;11.530;2023-10-31T09:59:20;6.80;;;1.00;;
55148;SDS011;49539;48.160;11.530;2023-10-31T10:01:46;2.33;;;0.85;;
55148;SDS011;49539;48.160;11.530;2023-10-31T10:04:11;2.85;;;1.13;;
55148;SDS011;49539;48.160;11.530;2023-10-31T10:06:40;1.60;;;0.60;;
55148;SDS011;49539;48.160;11.530;2023-10-31T10:09:05;0.95;;;0.50;;
55148;SDS011;49539;48.160;11.530;2023-10-31T10:11:33;2.45;;;0.80;;
55148;SDS011;49539;48.160;11.530;2023-10-31T10:13:58;4.05;;;0.70;;
55148;SDS011;49539;48.160;11.530;2023-10-31T10:16:30;2.13;;;0.80;;
55148;SDS011;49539;48.160;11.530;2023-10-31T10:18:55;6.78;;;1.10;;
55148;SDS011;49539;48.160;11.530;2023-10-31T10:21:24;2.45;;;0.70;;
55148;SDS011;49539;48.160;11.530;2023-10-31T10:23:51;2.63;;;1.15;;
55148;SDS011;49539;48.160;11.530;2023-10-31T10:26:17;1.13;;;0.65;;
55148;SDS011;49539;48.160;11.530;2023-10-31T10:28:46;1.67;;;0.60;;
55148;SDS011;49539;48.160;11.530;2023-10-31T10:31:13;1.67;;;0.93;;
55148;SDS011;49539;48.160;11.530;2023-10-31T10:33:40;3.72;;;0.73;;
55148;SDS011;49539;48.160;11.530;2023-10-31T10:36:05;2.15;;;0.60;;
55148;SDS011;49539;48.160;11.530;2023-10-31T10:38:31;5.20;;;0.60;;
55148;SDS011;49539;48.160;11.530;2023-10-31T10:40:59;2.90;;;1.27;;
55148;SDS011;49539;48.160;11.530;2023-10-31T10:43:25;1.45;;;0.68;;
55148;SDS011;49539;48.160;11.530;2023-10-31T10:45:55;1.75;;;0.98;;
55148;SDS011;49539;48.160;11.530;2023-10-31T10:48:29;2.80;;;0.65;;
55148;SDS011;49539;48.160;11.530;2023-10-31T10:50:57;4.97;;;0.98;;
55148;SDS011;49539;48.160;11.530;2023-10-31T10:53:29;1.42;;;0.85;;
55148;SDS011;49539;48.160;11.530;2023-10-31T10:55:55;2.33;;;0.50;;
55148;SDS011;49539;48.160;11.530;2023-10-31T10:58:34;1.65;;;0.70;;
55148;SDS011;49539;48.160;11.530;2023-10-31T11:01:01;2.40;;;0.80;;
55148;SDS011;49539;48.160;11.530;2023-10-31T11:03:29;2.45;;;0.75;;
55148;SDS011;49539;48.160;11.530;2023-10-31T11:05:54;0.60;;;0.40;;
55148;SDS011;49539;48.160;11.530;2023-10-31T11:08:20;2.67;;;1.05;;
55148;SDS011;49539;48.160;11.530;2023-10-31T11:10:46;1.75;;;0.90;;
55148;SDS011;49539;48.160;11.530;2023-10-31T11:13:11;3.65;;;1.17;;
55148;SDS011;49539;48.160;11.530;2023-10-31T11:15:37;3.40;;;0.80;;
55148;SDS011;49539;48.160;11.530;2023-10-31T11:18:03;2.33;;;1.05;;
55148;SDS011;49539;48.160;11.530;2023-10-31T11:20:30;3.15;;;0.70;;
55148;SDS011;49539;48.160;11.530;2023-10-31T11:22:58;2.63;;;0.50;;
55148;SDS011;49539;48.160;11.530;2023-10-31T11:25:31;1.40;;;0.80;;
55148;SDS011;49539;48.160;11.530;2023-10-31T11:28:10;1.95;;;1.02;;
55148;SDS011;49539;48.160;11.530;2023-10-31T11:30:35;1.38;;;0.85;;
55148;SDS011;49539;48.160;11.530;2023-10-31T11:33:01;1.77;;;0.70;;
55148;SDS011;49539;48.160;11.530;2023-10-31T11:35:30;4.97;;;0.80;;
55148;SDS011;49539;48.160;11.530;2023-10-31T11:38:05;4.80;;;0.77;;
55148;SDS011;49539;48.160;11.530;2023-10-31T11:40:33;2.15;;;0.70;;
55148;SDS011;49539;48.160;11.530;2023-10-31T11:43:03;3.17;;;1.10;;
55148;SDS011;49539;48.160;11.530;2023-10-31T11:50:29;1.05;;;0.70;;
55148;SDS011;49539;48.160;11.530;2023-10-31T11:52:58;3.15;;;0.77;;
55148;SDS011;49539;48.160;11.530;2023-10-31T11:55:24;2.38;;;0.85;;
55148;SDS011;49539;48.160;11.530;2023-10-31T11:57:49;2.67;;;0.50;;
55148;SDS011;49539;48.160;11.530;2023-10-31T12:00:22;5.28;;;0.73;;
55148;SDS011;49539;48.160;11.530;2023-10-31T12:02:58;2.15;;;0.50;;
55148;SDS011;49539;48.160;11.530;2023-10-31T12:05:23;1.27;;;0.73;;
55148;SDS011;49539;48.160;11.530;2023-10-31T12:07:48;2.40;;;1.00;;
55148;SDS011;49539;48.160;11.530;2023-10-31T12:10:26;2.45;;;0.70;;
55148;SDS011;49539;48.160;11.530;2023-10-31T12:12:56;2.33;;;0.73;;
55148;SDS011;49539;48.160;11.530;2023-10-31T12:15:22;2.90;;;0.75;;
55148;SDS011;49539;48.160;11.530;2023-10-31T12:17:47;2.97;;;1.65;;
55148;SDS011;49539;48.160;11.530;2023-10-31T12:20:13;1.20;;;0.50;;
55148;SDS011;49539;48.160;11.530;2023-10-31T12:22:38;1.10;;;0.70;;
55148;SDS011;49539;48.160;11.530;2023-10-31T12:25:06;3.78;;;0.90;;
55148;SDS011;49539;48.160;11.530;2023-10-31T12:30:14;1.13;;;0.60;;
55148;SDS011;49539;48.160;11.530;2023-10-31T12:32:41;0.57;;;0.40;;
55148;SDS011;49539;48.160;11.530;2023-10-31T12:35:08;0.65;;;0.50;;
55148;SDS011;49539;48.160;11.530;2023-10-31T12:37:34;2.45;;;0.57;;
55148;SDS011;49539;48.160;11.530;2023-10-31T12:39:59;1.85;;;0.50;;
55148;SDS011;49539;48.160;11.530;2023-10-31T12:42:29;0.75;;;0.45;;
55148;SDS011;49539;48.160;11.530;2023-10-31T12:44:57;0.90;;;0.52;;
55148;SDS011;49539;48.160;11.530;2023-10-31T12:47:27;2.00;;;0.40;;
55148;SDS011;49539;48.160;11.530;2023-10-31T12:55:14;1.35;;;0.65;;
55148;SDS011;49539;48.160;11.530;2023-10-31T12:57:39;1.10;;;0.45;;
55148;SDS011;49539;48.160;11.530;2023-10-31T13:00:05;1.40;;;0.45;;
55148;SDS011;49539;48.160;11.530;2023-10-31T13:02:34;3.40;;;0.50;;
55148;SDS011;49539;48.160;11.530;2023-10-31T13:05:09;0.90;;;0.47;;
55148;SDS011;49539;48.160;11.530;2023-10-31T13:07:35;7.18;;;0.60;;
55148;SDS011;49539;48.160;11.530;2023-10-31T13:10:00;0.55;;;0.50;;
55148;SDS011;49539;48.160;11.530;2023-10-31T13:12:26;0.30;;;0.30;;
55148;SDS011;49539;48.160;11.530;2023-10-31T13:14:53;0.80;;;0.35;;
55148;SDS011;49539;48.160;11.530;2023-10-31T13:17:18;0.88;;;0.43;;
55148;SDS011;49539;48.160;11.530;2023-10-31T13:19:44;1.55;;;0.50;;
55148;SDS011;49539;48.160;11.530;2023-10-31T13:22:09;1.02;;;0.50;;
55148;SDS011;49539;48.160;11.530;2023-10-31T13:24:35;1.13;;;0.40;;
55148;SDS011;49539;48.160;11.530;2023-10-31T13:27:00;0.40;;;0.30;;
55148;SDS011;49539;48.160;11.530;2023-10-31T13:29:27;0.52;;;0.38;;
55148;SDS011;49539;48.160;11.530;2023-10-31T13:31:53;1.02;;;0.40;;
55148;SDS011;49539;48.160;11.530;2023-10-31T13:34:19;0.32;;;0.32;;
55148;SDS011;49539;48.160;11.530;2023-10-31T13:36:44;1.88;;;0.63;;
55148;SDS011;49539;48.160;11.530;2023-10-31T13:39:10;0.65;;;0.52;;
55148;SDS011;49539;48.160;11.530;2023-10-31T13:41:35;0.40;;;0.30;;
55148;SDS011;49539;48.160;11.530;2023-10-31T13:44:01;1.05;;;0.40;;
55148;SDS011;49539;48.160;11.530;2023-10-31T13:46:28;1.08;;;0.40;;
55148;SDS011;49539;48.160;11.530;2023-10-31T13:48:54;1.70;;;0.40;;
55148;SDS011;49539;48.160;11.530;2023-10-31T13:51:20;0.77;;;0.40;;
55148;SDS011;49539;48.160;11.530;2023-10-31T13:53:46;2.13;;;0.52;;
55148;SDS011;49539;48.160;11.530;2023-10-31T13:56:11;1.33;;;0.60;;
55148;SDS011;49539;48.160;11.530;2023-10-31T13:58:36;0.57;;;0.40;;
55148;SDS011;49539;48.160;11.530;2023-10-31T14:01:02;0.75;;;0.50;;
55148;SDS011;49539;48.160;11.530;2023-10-31T14:03:27;0.82;;;0.50;;
55148;SDS011;49539;48.160;11.530;2023-10-31T14:05:52;1.10;;;0.50;;
55148;SDS011;49539;48.160;11.530;2023-10-31T14:08:18;0.50;;;0.30;;
55148;SDS011;49539;48.160;11.530;2023-10-31T14:10:46;0.40;;;0.40;;
55148;SDS011;49539;48.160;11.530;2023-10-31T14:13:12;1.80;;;1.10;;
55148;SDS011;49539;48.160;11.530;2023-10-31T14:15:37;0.80;;;0.30;;
55148;SDS011;49539;48.160;11.530;2023-10-31T14:18:03;1.10;;;0.43;;
55148;SDS011;49539;48.160;11.530;2023-10-31T14:20:29;0.60;;;0.55;;
55148;SDS011;49539;48.160;11.530;2023-10-31T14:22:54;0.90;;;0.50;;
55148;SDS011;49539;48.160;11.530;2023-10-31T14:25:19;2.28;;;0.90;;
55148;SDS011;49539;48.160;11.530;2023-10-31T14:27:44;0.55;;;0.40;;
55148;SDS011;49539;48.160;11.530;2023-10-31T14:30:10;0.68;;;0.50;;
55148;SDS011;49539;48.160;11.530;2023-10-31T14:32:36;2.25;;;0.52;;
55148;SDS011;49539;48.160;11.530;2023-10-31T14:35:01;0.50;;;0.40;;
55148;SDS011;49539;48.160;11.530;2023-10-31T14:37:27;1.80;;;0.60;;
55148;SDS011;49539;48.160;11.530;2023-10-31T14:39:53;0.57;;;0.50;;